Fremont, MI

2:07 PM EST on December 08, 2019 (GMT -0500)
Fremont

Weather History for KFFX - October, 2019

Change the Weather History Date:

Friday, October 11, 2019

  Actual Average (KMKG) Record (KMKG)
Temperature  
Mean Temperature 54 °F -  
Max Temperature 65 °F 60 °F 81 °F (1973)
Min Temperature 42 °F 40 °F 24 °F (1996)
Degree Days  
Heating Degree Days 12    
Growing Degree Days 4 (Base 50)    
Moisture  
Dew Point 54 °F    
Average Humidity 90    
Maximum Humidity 99    
Minimum Humidity 56    
Precipitation  
Precipitation 0.00 in - - ()
Sea Level Pressure  
Sea Level Pressure 29.89 in    
Wind  
Wind Speed 8 mph ()    
Max Wind Speed 17 mph    
Max Gust Speed 26 mph    
Visibility 8.7 miles    
Events Rain    
Averages and records for this station are not official NWS values.
T = Trace of Precipitation, MM = Missing Value Source: Averaged Metar Reports

Daily Weather History Graph

Daily Weather History Graph

Search for Another Location

Airport or City:

Astronomy

Oct. 11, 2019 Rise Set
Actual Time 7:52 AM EDT 7:07 PM EDT
Civil Twilight 7:24 AM EDT 7:36 PM EDT
Nautical Twilight 6:51 AM EDT 8:09 PM EDT
Astronomical Twilight 6:17 AM EDT 8:42 PM EDT
Moon 6:42 PM EDT (10/11) 5:26 AM EDT (10/11)
Length of Visible Light 12h 12m
Length of Day
11h 14m
Waxing Gibbous, 96% of the Moon is Illuminated
Oct 11
Waxing Gibbous
Oct 13
Full
Oct 21
Last Quarter
Oct 27
New
Nov 4
First Quarter

Hourly Weather History & Observations

Time (EDT) Temp. Windchill Dew Point Humidity Pressure Visibility Wind Dir Wind Speed Gust Speed Precip Events Conditions
12:15 AM 63.5 °F - 47.5 °F 56% 30.02 in 10.0 mi ESE 9.2 mph 16.1 mph N/A   Overcast
12:16 AM 63.5 °F - 47.7 °F 56% 30.02 in 10.0 mi ESE 10.4 mph 16.1 mph N/A   Overcast
12:35 AM 63.1 °F - 47.7 °F 57% 30.01 in 10.0 mi ESE 8.1 mph 16.1 mph N/A   Overcast
12:36 AM 63.1 °F - 47.7 °F 57% 30.01 in 10.0 mi ESE 9.2 mph 16.1 mph N/A   Overcast
12:59 AM 63.0 °F - 47.5 °F 57% 30.01 in 10.0 mi ESE 10.4 mph - N/A   Overcast
1:35 AM 62.6 °F - 47.5 °F 58% 30.02 in 10.0 mi South 6.9 mph - N/A Rain Light Rain
1:36 AM 62.6 °F - 47.5 °F 58% 30.02 in 10.0 mi South 5.8 mph - N/A Rain Rain
1:55 AM 60.1 °F - 50.7 °F 71% 30.00 in 10.0 mi East 4.6 mph - N/A Rain Light Rain
2:15 AM 59.9 °F - 53.1 °F 78% 30.00 in 10.0 mi Calm Calm - N/A Rain Rain
2:19 AM 59.9 °F - 53.2 °F 79% 30.00 in 10.0 mi Calm Calm - N/A Rain Rain
2:56 AM 59.4 °F - 55.6 °F 87% 29.98 in 10.0 mi East 3.5 mph - N/A Rain Rain
3:15 AM 59.0 °F - 55.8 °F 89% 29.96 in 10.0 mi East 8.1 mph - N/A   Overcast
3:35 AM 59.2 °F - 55.6 °F 88% 29.95 in 10.0 mi ESE 6.9 mph - N/A   Overcast
3:59 AM 59.4 °F - 55.6 °F 87% 29.95 in 10.0 mi ESE 8.1 mph - N/A   Overcast
4:17 AM 59.9 °F - 55.4 °F 85% 29.94 in 10.0 mi ESE 6.9 mph - N/A   Overcast
4:35 AM 60.3 °F - 55.8 °F 85% 29.94 in 10.0 mi ESE 8.1 mph - N/A   Overcast
4:36 AM 60.3 °F - 55.8 °F 85% 29.94 in 10.0 mi ESE 8.1 mph - N/A   Overcast
4:55 AM 60.8 °F - 55.2 °F 82% 29.93 in 10.0 mi ESE 6.9 mph - N/A   Overcast
4:56 AM 60.8 °F - 55.4 °F 82% 29.93 in 10.0 mi ESE 8.1 mph - N/A   Overcast
5:15 AM 61.0 °F - 55.9 °F 83% 29.95 in 10.0 mi SSE 4.6 mph - N/A   Overcast
5:38 AM 61.0 °F - 57.4 °F 88% 29.95 in 10.0 mi SE 8.1 mph - N/A Rain Rain
5:56 AM 60.1 °F - 58.6 °F 95% 29.94 in 5.0 mi SE 8.1 mph - N/A Rain Rain
6:15 AM 59.9 °F - 59.0 °F 97% 29.93 in 10.0 mi SE 4.6 mph - N/A Rain Light Rain
6:16 AM 59.9 °F - 59.0 °F 97% 29.94 in 10.0 mi SE 5.8 mph - N/A Rain Rain
6:35 AM 60.1 °F - 59.0 °F 96% 29.93 in 10.0 mi ESE 6.9 mph - N/A Rain Light Rain
6:36 AM 60.1 °F - 59.0 °F 96% 29.93 in 10.0 mi ESE 6.9 mph - N/A Rain Light Rain
6:59 AM 59.9 °F - 59.2 °F 97% 29.92 in 4.0 mi ESE 8.1 mph - N/A Rain Heavy Rain
7:17 AM 60.1 °F - 59.5 °F 98% 29.91 in 5.0 mi ESE 11.5 mph - N/A Rain Rain
7:35 AM 60.6 °F - 59.7 °F 97% 29.92 in 10.0 mi SE 8.1 mph 17.3 mph N/A   Overcast
7:36 AM 60.8 °F - 59.9 °F 97% 29.92 in 10.0 mi SE 9.2 mph - N/A   Overcast
7:55 AM 60.8 °F - 59.9 °F 97% 29.91 in 10.0 mi ESE 5.8 mph - N/A   Overcast
7:56 AM 60.8 °F - 59.9 °F 97% 29.91 in 10.0 mi SE 6.9 mph - N/A   Overcast
8:15 AM 61.0 °F - 60.3 °F 97% 29.91 in 10.0 mi SE 6.9 mph - N/A   Overcast
8:20 AM 61.2 °F - 60.4 °F 97% 29.91 in 10.0 mi SE 6.9 mph - N/A   Overcast
8:38 AM 61.7 °F - 60.4 °F 96% 29.91 in 10.0 mi SE 8.1 mph - N/A   Overcast
8:56 AM 61.7 °F - 60.6 °F 96% 29.91 in 10.0 mi SE 9.2 mph - N/A   Overcast
9:15 AM 61.9 °F - 60.8 °F 96% 29.90 in 10.0 mi SE 8.1 mph - N/A   Overcast
9:35 AM 62.2 °F - 60.8 °F 95% 29.90 in 10.0 mi SSE 9.2 mph - N/A   Overcast
9:36 AM 62.2 °F - 60.8 °F 95% 29.90 in 10.0 mi SSE 9.2 mph - N/A   Overcast
9:59 AM 62.6 °F - 61.0 °F 94% 29.89 in 10.0 mi SE 8.1 mph - N/A   Overcast
10:35 AM 63.5 °F - 61.2 °F 92% 29.88 in 10.0 mi SE 8.1 mph - N/A   Overcast
10:55 AM 63.9 °F - 61.2 °F 91% 29.87 in 10.0 mi SE 8.1 mph 16.1 mph N/A   Overcast
11:15 AM 63.9 °F - 61.2 °F 91% 29.86 in 10.0 mi SE 11.5 mph - N/A   Overcast
11:20 AM 64.0 °F - 61.2 °F 90% 29.86 in 10.0 mi SE 10.4 mph - N/A   Overcast
11:38 AM 64.4 °F - 61.7 °F 91% 29.85 in 10.0 mi SSE 8.1 mph 18.4 mph N/A   Overcast
11:56 AM 63.9 °F - 62.1 °F 94% 29.85 in 10.0 mi SSE 9.2 mph - N/A   Drizzle
12:15 PM 63.7 °F - 62.6 °F 96% 29.85 in 10.0 mi SSE 6.9 mph - N/A Rain Rain
12:35 PM 63.9 °F - 62.6 °F 96% 29.83 in 10.0 mi SSE 6.9 mph - N/A   Light Drizzle
12:59 PM 64.8 °F - 62.8 °F 93% 29.82 in 10.0 mi SE 6.9 mph - N/A Rain Light Rain
1:17 PM 64.6 °F - 63.0 °F 94% 29.81 in 10.0 mi SE 8.1 mph - N/A   Drizzle
1:35 PM 65.3 °F - 63.3 °F 93% 29.80 in 10.0 mi SSE 9.2 mph 18.4 mph N/A   Drizzle
1:55 PM 64.4 °F - 63.5 °F 97% 29.78 in 4.0 mi SE 10.4 mph 20.7 mph N/A Rain Light Rain
2:15 PM 63.9 °F - 63.3 °F 98% 29.77 in 5.0 mi SE 13.8 mph 21.9 mph N/A Rain Light Rain
2:20 PM 64.0 °F - 63.5 °F 98% 29.77 in 7.0 mi SSE 10.4 mph 21.9 mph N/A Rain Light Rain
2:38 PM 64.4 °F - 63.5 °F 97% 29.76 in 10.0 mi SE 11.5 mph 20.7 mph N/A   Drizzle
2:56 PM 64.4 °F - 63.5 °F 97% 29.76 in 7.0 mi SSE 9.2 mph 18.4 mph N/A   Heavy Drizzle
3:15 PM 63.9 °F - 63.5 °F 99% 29.76 in 3.0 mi SSE 11.5 mph 19.6 mph N/A Rain Rain
3:35 PM 63.7 °F - 63.5 °F 99% 29.77 in 3.0 mi SSW 17.3 mph 26.5 mph N/A Rain Light Rain
3:59 PM 61.7 °F - 61.0 °F 97% 29.78 in 4.0 mi WSW 15.0 mph 21.9 mph N/A   Heavy Drizzle
4:17 PM 58.1 °F - 57.4 °F 97% 29.80 in 4.0 mi WSW 9.2 mph 19.6 mph N/A Rain Rain
4:35 PM 55.9 °F - 55.4 °F 98% 29.80 in 3.0 mi West 9.2 mph - N/A Rain Heavy Rain
4:36 PM 55.9 °F - 55.4 °F 98% 29.80 in 3.0 mi West 9.2 mph - N/A Rain Light Rain
4:55 PM 54.3 °F - 53.1 °F 95% 29.81 in 10.0 mi West 11.5 mph - N/A   Light Drizzle
5:15 PM 52.7 °F - 51.8 °F 97% 29.82 in 3.0 mi West 8.1 mph - N/A   Drizzle
5:38 PM 51.8 °F - 51.1 °F 97% 29.83 in 2.5 mi West 10.4 mph - N/A   Heavy Drizzle
5:56 PM 51.3 °F - 50.5 °F 97% 29.83 in 2.5 mi West 11.5 mph 17.3 mph N/A   Heavy Drizzle
6:15 PM 50.4 °F - 49.6 °F 97% 29.83 in 10.0 mi West 9.2 mph - N/A   Overcast
6:16 PM 50.4 °F - 49.6 °F 97% 29.83 in 10.0 mi West 8.1 mph - N/A   Overcast
6:35 PM 50.2 °F - 49.3 °F 97% 29.85 in 10.0 mi WSW 11.5 mph 18.4 mph N/A Rain Light Rain
6:36 PM 50.0 °F - 49.1 °F 97% 29.85 in 10.0 mi WSW 10.4 mph 18.4 mph N/A   Light Drizzle
6:59 PM 48.9 °F - 48.0 °F 97% 29.85 in 2.5 mi West 10.4 mph 18.4 mph N/A   Heavy Drizzle
7:17 PM 48.6 °F - 47.8 °F 97% 29.86 in 7.0 mi West 6.9 mph - N/A   Drizzle
7:35 PM 47.5 °F - 46.4 °F 96% 29.88 in 7.0 mi West 13.8 mph 18.4 mph N/A Rain Rain
7:55 PM 46.4 °F 41.1 °F 45.5 °F 97% 29.87 in 10.0 mi WNW 11.5 mph 16.1 mph N/A   Light Drizzle
7:56 PM 46.4 °F 41.1 °F 45.5 °F 97% 29.87 in 10.0 mi WNW 11.5 mph 16.1 mph N/A Rain Light Rain
8:15 PM 46.0 °F 40.6 °F 45.1 °F 97% 29.88 in 7.0 mi West 11.5 mph - N/A Rain Light Rain
8:20 PM 46.0 °F 41.0 °F 45.1 °F 97% 29.88 in 7.0 mi WNW 10.4 mph - N/A Rain Rain
8:37 PM 45.7 °F 39.1 °F 44.8 °F 97% 29.89 in 7.0 mi West 15.0 mph - N/A Rain Light Rain
8:56 PM 45.5 °F 40.8 °F 43.7 °F 93% 29.90 in 10.0 mi West 9.2 mph - N/A   Overcast
9:15 PM 45.0 °F 40.1 °F 42.4 °F 91% 29.91 in 10.0 mi West 9.2 mph - N/A Rain Light Rain
9:16 PM 45.0 °F 40.1 °F 42.4 °F 91% 29.91 in 10.0 mi West 9.2 mph - N/A Rain Rain
9:35 PM 44.6 °F 41.4 °F 42.6 °F 93% 29.91 in 10.0 mi WSW 5.8 mph - N/A Rain Rain
9:59 PM 44.6 °F 40.7 °F 43.3 °F 95% 29.92 in 10.0 mi WSW 6.9 mph - N/A Rain Light Rain
10:17 PM 44.6 °F 38.8 °F 42.4 °F 92% 29.92 in 10.0 mi West 11.5 mph - N/A Rain Light Rain
10:35 PM 43.7 °F 38.1 °F 40.6 °F 89% 29.93 in 10.0 mi West 10.4 mph 17.3 mph N/A   Overcast
10:36 PM 43.7 °F 37.7 °F 40.5 °F 88% 29.93 in 10.0 mi West 11.5 mph 17.3 mph N/A   Overcast
10:55 PM 43.0 °F 37.7 °F 39.2 °F 86% 29.93 in 10.0 mi West 9.2 mph 17.3 mph N/A   Overcast
10:56 PM 43.0 °F 37.7 °F 39.2 °F 86% 29.93 in 10.0 mi West 9.2 mph 17.3 mph N/A   Overcast
11:15 PM 42.8 °F 37.5 °F 38.1 °F 84% 29.93 in 10.0 mi West 9.2 mph - N/A   Overcast
11:38 PM 42.4 °F 37.5 °F 35.8 °F 77% 29.93 in 10.0 mi West 8.1 mph - N/A   Overcast
11:56 PM 42.3 °F 37.3 °F 33.3 °F 70% 29.93 in 10.0 mi West 8.1 mph - N/A   Overcast